Time;durP1;ratioP1;P1;durP2;ratioP2;P2;SDS_P1;SDS_P2;PMS_P1;PMS_P2;Temp;Humidity;BMP_temperature;BMP_pressure;BME280_temperature;BME280_humidity;BME280_pressure;Samples;Min_cycle;Max_cycle;Signal;HPM_P1;HPM_P2
2023/08/06 00:00:42;;;;;;;10.85;4.82;;;;;;;23.89;65.13;98242.47;4459714;32;33143;-75
2023/08/06 00:03:10;;;;;;;10.65;5.10;;;;;;;23.93;65.08;98251.84;4445657;32;33824;-75
2023/08/06 00:05:41;;;;;;;8.73;4.53;;;;;;;23.90;64.94;98249.59;4461853;32;33657;-75
2023/08/06 00:08:09;;;;;;;9.48;4.90;;;;;;;23.83;65.44;98242.59;4457473;32;34739;-75
2023/08/06 00:10:39;;;;;;;10.07;5.50;;;;;;;23.87;65.27;98235.56;4458675;32;34148;-75
2023/08/06 00:13:07;;;;;;;9.65;4.28;;;;;;;23.60;66.54;98221.53;4462353;32;35141;-74
2023/08/06 00:15:35;;;;;;;9.73;4.68;;;;;;;23.51;67.07;98217.47;4463547;32;34950;-76
2023/08/06 00:18:02;;;;;;;7.80;4.28;;;;;;;23.88;65.51;98227.16;4458405;32;33698;-75
2023/08/06 00:20:30;;;;;;;8.02;4.32;;;;;;;23.98;65.14;98223.84;4452172;32;33310;-75
2023/08/06 00:22:58;;;;;;;10.05;5.78;;;;;;;24.04;64.97;98227.50;4451439;32;34864;-75
2023/08/06 00:25:25;;;;;;;10.32;5.53;;;;;;;23.98;65.15;98236.62;4465480;32;33719;-75
2023/08/06 00:27:53;;;;;;;9.80;5.85;;;;;;;23.90;65.27;98243.31;4461894;32;32331;-75
2023/08/06 00:30:21;;;;;;;11.63;6.18;;;;;;;23.71;65.84;98248.87;4454979;32;33284;-76
2023/08/06 00:32:50;;;;;;;10.88;5.72;;;;;;;23.87;65.45;98235.56;4457067;32;33679;-76
2023/08/06 00:35:18;;;;;;;9.90;5.53;;;;;;;23.40;67.17;98240.94;4463185;32;32884;-76
2023/08/06 00:37:46;;;;;;;10.63;5.75;;;;;;;23.76;65.75;98239.97;4450912;32;33639;-76
2023/08/06 00:40:13;;;;;;;16.30;7.22;;;;;;;23.78;65.66;98232.34;4459591;32;32736;-75
2023/08/06 00:42:41;;;;;;;8.35;4.40;;;;;;;23.71;65.84;98231.66;4452793;32;33550;-75
2023/08/06 00:45:09;;;;;;;8.25;5.22;;;;;;;23.87;65.55;98225.47;4452190;32;33444;-75
2023/08/06 00:47:39;;;;;;;11.38;5.53;;;;;;;23.90;65.65;98221.44;4466888;32;33569;-75
2023/08/06 00:50:07;;;;;;;10.27;5.93;;;;;;;23.87;65.59;98216.47;4484885;32;33316;-75
2023/08/06 00:52:36;;;;;;;9.82;5.62;;;;;;;23.91;64.42;98210.25;4491294;31;32835;-76
2023/08/06 00:55:05;;;;;;;9.65;5.57;;;;;;;23.83;64.68;98212.53;4491646;31;34053;-77
2023/08/06 00:57:33;;;;;;;9.65;5.10;;;;;;;23.76;65.19;98203.63;4498328;31;33807;-76
2023/08/06 01:00:04;;;;;;;7.93;4.55;;;;;;;23.66;65.13;98198.75;4489890;31;34887;-77
2023/08/06 01:02:31;;;;;;;7.78;4.55;;;;;;;23.61;65.30;98190.41;4485900;31;33609;-76
2023/08/06 01:04:59;;;;;;;6.87;4.15;;;;;;;23.67;65.05;98186.72;4485204;31;34222;-77
2023/08/06 01:07:54;;;;;;;8.88;4.55;;;;;;;23.55;65.47;98186.72;4484566;31;34602;-75
2023/08/06 01:10:45;;;;;;;8.90;3.62;;;;;;;23.56;65.31;98182.09;4487643;31;34119;-73
2023/08/06 01:13:34;;;;;;;7.43;3.78;;;;;;;23.33;65.84;98166.50;4482800;31;33411;-73
2023/08/06 01:16:05;;;;;;;9.27;3.70;;;;;;;23.41;66.01;98168.91;4488066;31;35239;-76
2023/08/06 01:18:33;;;;;;;8.52;4.70;;;;;;;23.46;65.93;98163.56;4490561;31;33921;-75
2023/08/06 01:21:01;;;;;;;6.62;3.75;;;;;;;23.33;66.09;98155.59;4484708;32;34134;-77
2023/08/06 01:23:29;;;;;;;9.20;3.92;;;;;;;23.10;66.73;98159.94;4482814;31;33511;-76
2023/08/06 01:26:25;;;;;;;8.23;4.05;;;;;;;23.15;66.62;98159.25;4494124;31;33738;-77
2023/08/06 01:28:59;;;;;;;11.57;4.28;;;;;;;23.23;65.70;98158.91;4479805;31;33549;-77
2023/08/06 01:31:31;;;;;;;13.55;4.18;;;;;;;23.22;65.71;98165.44;4482071;31;34193;-77
2023/08/06 01:34:01;;;;;;;6.80;4.10;;;;;;;23.15;65.82;98156.53;4496899;31;33834;-76
2023/08/06 01:36:29;;;;;;;8.25;3.80;;;;;;;23.01;66.24;98161.34;4494652;31;34022;-76
2023/08/06 01:38:58;;;;;;;5.85;3.03;;;;;;;23.09;65.95;98157.47;4499968;31;34320;-77
2023/08/06 01:41:26;;;;;;;5.43;3.28;;;;;;;23.14;65.62;98163.84;4490869;31;32016;-77
2023/08/06 01:43:54;;;;;;;4.93;2.80;;;;;;;23.22;65.70;98162.72;4496125;31;34606;-76
2023/08/06 01:46:21;;;;;;;4.87;3.22;;;;;;;23.32;65.29;98164.84;4490614;31;34236;-75
2023/08/06 01:48:49;;;;;;;7.43;3.12;;;;;;;23.28;65.63;98160.94;4488790;31;33406;-76
2023/08/06 01:51:16;;;;;;;7.57;3.12;;;;;;;23.16;66.05;98159.00;4484720;32;33464;-75
2023/08/06 01:53:44;;;;;;;4.78;2.87;;;;;;;23.07;66.26;98152.22;4483642;31;34049;-75
2023/08/06 01:56:11;;;;;;;6.32;2.65;;;;;;;23.16;66.25;98147.25;4493785;31;33635;-76
2023/08/06 01:58:40;;;;;;;6.50;3.55;;;;;;;22.65;67.93;98145.91;4488514;31;33594;-74
2023/08/06 02:01:07;;;;;;;6.22;2.97;;;;;;;23.14;65.59;98136.56;4493336;31;32978;-75
2023/08/06 02:03:35;;;;;;;6.90;2.87;;;;;;;23.23;65.18;98128.88;4488831;31;33511;-75
2023/08/06 02:06:03;;;;;;;5.18;3.28;;;;;;;23.27;64.77;98121.88;4493635;31;33894;-75
2023/08/06 02:08:30;;;;;;;7.28;2.87;;;;;;;23.27;65.29;98123.78;4494869;31;34656;-75
2023/08/06 02:10:59;;;;;;;5.00;2.60;;;;;;;23.29;65.18;98111.56;4496143;31;34234;-76
2023/08/06 02:13:26;;;;;;;3.72;2.40;;;;;;;23.23;65.46;98105.13;4491829;31;33710;-75
2023/08/06 02:15:54;;;;;;;5.37;3.47;;;;;;;23.27;65.66;98097.31;4483947;31;33987;-74
2023/08/06 02:18:22;;;;;;;3.65;2.03;;;;;;;23.00;66.48;98083.28;4496930;31;33574;-74
2023/08/06 02:20:57;;;;;;;7.47;3.05;;;;;;;22.85;66.48;98083.69;4488714;31;34470;-76
2023/08/06 02:23:25;;;;;;;4.57;2.40;;;;;;;23.20;65.33;98089.22;4490116;31;33912;-77
2023/08/06 02:25:58;;;;;;;5.20;2.80;;;;;;;23.30;64.51;98088.66;4479588;31;35188;-77
2023/08/06 02:28:25;;;;;;;5.75;2.78;;;;;;;23.34;64.42;98083.53;4491419;31;33458;-77
2023/08/06 02:30:53;;;;;;;2.58;1.87;;;;;;;23.32;64.59;98081.06;4492515;31;34262;-76
2023/08/06 02:33:21;;;;;;;5.25;2.83;;;;;;;23.13;65.35;98072.16;4491354;31;33931;-76
2023/08/06 02:35:48;;;;;;;4.87;2.53;;;;;;;23.32;64.63;98085.69;4484959;31;33896;-77
2023/08/06 02:38:16;;;;;;;3.47;2.22;;;;;;;23.21;64.80;98077.28;4491500;31;33729;-78
2023/08/06 02:40:47;;;;;;;4.93;2.25;;;;;;;23.17;65.08;98077.97;4499283;31;34296;-78
2023/08/06 02:43:16;;;;;;;5.03;2.45;;;;;;;23.02;65.05;98076.53;4474168;31;33934;-78
2023/08/06 02:45:43;;;;;;;4.53;2.72;;;;;;;23.12;65.04;98072.41;4486231;31;33994;-77
2023/08/06 02:48:11;;;;;;;4.97;2.92;;;;;;;23.16;64.80;98065.41;4490092;31;33750;-77
2023/08/06 02:50:40;;;;;;;4.85;2.55;;;;;;;23.22;64.55;98056.25;4490982;31;34114;-77
2023/08/06 02:53:08;;;;;;;4.12;2.50;;;;;;;23.14;64.83;98051.16;4484759;31;33862;-76
2023/08/06 02:55:36;;;;;;;5.53;2.87;;;;;;;23.04;64.89;98059.09;4483943;31;33723;-77
2023/08/06 02:58:05;;;;;;;5.82;2.75;;;;;;;23.06;64.82;98065.97;4491430;31;34725;-76
2023/08/06 03:00:33;;;;;;;5.10;2.35;;;;;;;22.87;65.24;98078.84;4483758;31;34859;-77
2023/08/06 03:03:02;;;;;;;5.00;2.65;;;;;;;22.98;65.06;98075.31;4479439;31;33099;-77
2023/08/06 03:05:30;;;;;;;5.00;2.47;;;;;;;22.89;65.65;98070.41;4482632;31;34152;-77
2023/08/06 03:07:58;;;;;;;3.97;2.05;;;;;;;23.04;64.95;98072.75;4493910;31;34592;-74
2023/08/06 03:10:26;;;;;;;3.33;2.03;;;;;;;22.98;65.06;98075.31;4483777;31;33215;-74
2023/08/06 03:12:54;;;;;;;5.10;2.67;;;;;;;22.99;64.83;98073.47;4496099;31;35061;-73
2023/08/06 03:15:22;;;;;;;4.85;1.92;;;;;;;22.94;65.27;98076.88;4484887;31;34081;-73
2023/08/06 03:17:50;;;;;;;6.12;3.05;;;;;;;22.92;64.95;98070.81;4494805;31;34595;-73
2023/08/06 03:20:18;;;;;;;4.53;2.22;;;;;;;22.85;64.94;98069.22;4481315;31;34778;-73
2023/08/06 03:22:46;;;;;;;6.28;2.58;;;;;;;22.74;65.44;98059.97;4495952;31;33817;-74
2023/08/06 03:25:13;;;;;;;7.28;2.90;;;;;;;22.74;65.53;98068.16;4496792;31;35000;-75
2023/08/06 03:27:42;;;;;;;9.02;2.45;;;;;;;22.64;66.02;98071.44;4482938;32;33594;-75
2023/08/06 03:30:11;;;;;;;4.43;2.17;;;;;;;22.69;65.90;98073.47;4483725;31;34117;-75
2023/08/06 03:32:39;;;;;;;5.12;2.95;;;;;;;22.78;65.47;98063.88;4495705;31;33800;-73
2023/08/06 03:35:07;;;;;;;5.85;2.95;;;;;;;22.76;65.50;98058.69;4487345;31;33882;-73
2023/08/06 03:37:35;;;;;;;5.18;2.78;;;;;;;22.50;66.37;98054.47;4494078;31;34522;-73
2023/08/06 03:40:03;;;;;;;5.45;2.97;;;;;;;22.52;66.18;98054.22;4497820;31;33353;-73
2023/08/06 03:42:31;;;;;;;8.13;2.42;;;;;;;22.63;65.54;98061.62;4488338;31;33950;-73
2023/08/06 03:44:59;;;;;;;7.90;2.78;;;;;;;22.67;65.44;98067.44;4484975;31;33856;-74
2023/08/06 03:47:27;;;;;;;5.68;2.53;;;;;;;22.77;65.48;98075.88;4493079;31;33729;-73
2023/08/06 03:49:54;;;;;;;7.28;2.75;;;;;;;22.76;65.17;98068.72;4490285;31;33097;-73
2023/08/06 03:52:22;;;;;;;5.87;3.62;;;;;;;22.32;66.27;98066.25;4486818;31;33820;-74
2023/08/06 03:54:50;;;;;;;4.95;2.72;;;;;;;22.58;65.87;98066.09;4492055;31;34178;-73
2023/08/06 03:57:18;;;;;;;7.07;3.17;;;;;;;22.64;65.32;98067.91;4498418;31;34476;-74
2023/08/06 03:59:45;;;;;;;6.70;2.85;;;;;;;22.65;65.36;98066.81;4488386;31;33392;-73
2023/08/06 04:02:22;;;;;;;7.97;2.83;;;;;;;22.45;66.34;98065.22;4485752;31;34714;-73
2023/08/06 04:04:53;;;;;;;4.45;2.72;;;;;;;22.55;65.74;98053.75;4487652;31;34232;-76
2023/08/06 04:07:21;;;;;;;5.30;2.78;;;;;;;22.66;65.38;98065.75;4492297;31;34492;-77
2023/08/06 04:09:58;;;;;;;3.15;1.87;;;;;;;22.61;65.55;98062.91;4482557;31;33097;-76
2023/08/06 04:12:26;;;;;;;3.17;1.77;;;;;;;22.35;66.19;98058.69;4483820;31;33809;-76
2023/08/06 04:14:55;;;;;;;1.37;0.75;;;;;;;21.95;67.15;98056.44;4493608;31;33855;-76
2023/08/06 04:17:23;;;;;;;2.05;0.70;;;;;;;22.12;66.38;98060.22;4496412;31;34298;-76
2023/08/06 04:19:52;;;;;;;2.40;1.05;;;;;;;22.03;66.43;98056.13;4474037;31;34161;-77
2023/08/06 04:22:21;;;;;;;2.20;1.23;;;;;;;22.06;66.47;98055.69;4493084;31;33613;-75
2023/08/06 04:24:48;;;;;;;1.10;0.62;;;;;;;22.14;66.01;98052.63;4490148;31;34164;-76
2023/08/06 04:27:17;;;;;;;3.58;0.90;;;;;;;21.89;67.05;98054.62;4499232;31;33616;-76
2023/08/06 04:29:45;;;;;;;1.12;0.75;;;;;;;22.00;66.63;98051.97;4491882;31;33441;-76
2023/08/06 04:32:13;;;;;;;2.70;1.08;;;;;;;22.18;65.96;98042.94;4489312;31;33707;-76
2023/08/06 04:34:43;;;;;;;1.80;1.08;;;;;;;22.19;65.79;98047.34;4483267;31;34151;-76
2023/08/06 04:37:10;;;;;;;2.00;0.98;;;;;;;21.97;66.61;98047.00;4494566;31;34597;-76
2023/08/06 04:39:38;;;;;;;1.55;0.90;;;;;;;21.84;66.60;98044.44;4496731;31;34301;-76
2023/08/06 04:42:06;;;;;;;1.17;0.65;;;;;;;21.80;66.14;98032.34;4486819;31;32555;-76
2023/08/06 04:44:34;;;;;;;1.95;1.17;;;;;;;21.50;67.44;98040.41;4490942;31;34930;-75
2023/08/06 04:47:01;;;;;;;1.70;0.75;;;;;;;21.82;66.09;98039.19;4490272;31;34647;-75
2023/08/06 04:49:29;;;;;;;3.60;0.93;;;;;;;21.46;67.32;98040.03;4483262;31;33345;-77
2023/08/06 04:51:57;;;;;;;1.10;0.52;;;;;;;21.68;66.57;98034.16;4490888;31;34630;-76
2023/08/06 04:54:24;;;;;;;1.45;0.70;;;;;;;21.45;66.98;98040.28;4496442;31;34300;-75
2023/08/06 04:56:52;;;;;;;1.05;0.52;;;;;;;21.56;66.71;98042.25;4497460;31;34554;-75
2023/08/06 04:59:19;;;;;;;1.95;0.73;;;;;;;21.58;66.65;98027.34;4492438;31;33250;-72
2023/08/06 05:01:47;;;;;;;0.55;0.55;;;;;;;21.58;66.79;98026.53;4481446;31;34851;-78
2023/08/06 05:04:15;;;;;;;0.68;0.40;;;;;;;21.83;66.24;98024.53;4487771;31;35215;-79
2023/08/06 05:06:42;;;;;;;0.57;0.20;;;;;;;21.86;65.90;98032.25;4483139;31;33819;-78
2023/08/06 05:09:13;;;;;;;0.13;0.13;;;;;;;21.76;65.85;98033.84;4487424;31;34159;-76
2023/08/06 05:11:40;;;;;;;1.00;0.20;;;;;;;21.77;65.85;98027.34;4484301;31;34587;-76
2023/08/06 05:14:08;;;;;;;0.93;0.40;;;;;;;21.78;65.73;98020.84;4490122;31;34134;-77
2023/08/06 05:16:35;;;;;;;0.30;0.20;;;;;;;21.76;65.41;98020.22;4478409;31;33530;-76
2023/08/06 05:19:03;;;;;;;0.32;0.20;;;;;;;21.76;65.32;98014.78;4481757;31;34542;-76
2023/08/06 05:21:31;;;;;;;0.00;0.00;;;;;;;21.85;65.25;98011.50;4490246;31;33654;-78
2023/08/06 05:23:58;;;;;;;0.55;0.22;;;;;;;21.84;65.41;98014.47;4492884;31;35400;-77
2023/08/06 05:26:26;;;;;;;0.70;0.20;;;;;;;21.82;65.42;98017.41;4488384;31;34591;-75
2023/08/06 05:28:54;;;;;;;0.00;0.00;;;;;;;21.75;65.32;98022.13;4495750;31;33130;-77
2023/08/06 05:31:21;;;;;;;0.85;0.17;;;;;;;21.81;65.57;98017.66;4491555;31;34002;-74
2023/08/06 05:33:49;;;;;;;0.00;0.00;;;;;;;21.69;65.05;98022.19;4483360;31;33600;-77
2023/08/06 05:36:17;;;;;;;0.30;0.30;;;;;;;21.59;65.37;98017.28;4483117;31;33435;-78
2023/08/06 05:38:45;;;;;;;0.00;0.00;;;;;;;21.63;64.80;98016.59;4484657;31;33272;-78
2023/08/06 05:41:13;;;;;;;0.52;0.52;;;;;;;21.26;66.26;98018.47;4477498;31;32959;-78
2023/08/06 05:43:40;;;;;;;0.47;0.43;;;;;;;21.02;66.87;98022.03;4487127;31;32859;-77
2023/08/06 05:46:08;;;;;;;0.32;0.22;;;;;;;20.62;67.49;98020.50;4490659;31;33563;-73
2023/08/06 05:48:36;;;;;;;0.15;0.10;;;;;;;20.48;68.13;98011.59;4493156;31;33143;-75
2023/08/06 05:51:03;;;;;;;0.30;0.20;;;;;;;20.47;68.20;98015.34;4484272;31;33834;-76
2023/08/06 05:53:31;;;;;;;0.47;0.30;;;;;;;20.60;68.41;98017.16;4494191;31;33962;-76
2023/08/06 05:55:58;;;;;;;0.55;0.20;;;;;;;21.03;66.11;98019.13;4491291;31;34476;-77
2023/08/06 05:58:29;;;;;;;0.57;0.10;;;;;;;20.74;67.76;98004.31;4487348;31;34159;-78
2023/08/06 06:00:56;;;;;;;0.20;0.20;;;;;;;21.12;65.55;98003.31;4488664;31;34715;-76
2023/08/06 06:03:24;;;;;;;0.15;0.15;;;;;;;20.21;69.84;98000.06;4495350;31;35363;-77
2023/08/06 06:05:52;;;;;;;0.28;0.28;;;;;;;20.60;67.90;97991.88;4473022;32;33399;-77
2023/08/06 06:08:19;;;;;;;4.18;0.73;;;;;;;20.68;66.91;97984.28;4477782;32;33193;-77
2023/08/06 06:10:47;;;;;;;0.20;0.20;;;;;;;20.07;69.43;97986.81;4452502;32;33490;-77
2023/08/06 06:13:14;;;;;;;0.37;0.35;;;;;;;19.29;72.26;97985.00;4467136;32;33516;-77
2023/08/06 06:15:42;;;;;;;0.32;0.32;;;;;;;20.19;68.90;97990.47;4464771;32;34591;-77
2023/08/06 06:18:10;;;;;;;0.13;0.13;;;;;;;20.15;69.09;97990.06;4457790;32;34267;-77
2023/08/06 06:20:37;;;;;;;0.20;0.20;;;;;;;20.07;69.99;97998.50;4462506;32;33651;-78
2023/08/06 06:23:05;;;;;;;0.28;0.28;;;;;;;20.36;68.47;97990.78;4465401;32;35008;-77
2023/08/06 06:25:33;;;;;;;1.12;1.05;;;;;;;19.87;70.59;97995.03;4468062;32;32989;-77
2023/08/06 06:28:00;;;;;;;0.75;0.50;;;;;;;19.45;71.42;98006.25;4470785;32;32993;-78
2023/08/06 06:30:28;;;;;;;0.30;0.30;;;;;;;19.27;73.52;98008.81;4468728;32;34632;-78
2023/08/06 06:32:56;;;;;;;1.45;0.50;;;;;;;19.75;71.88;98008.47;4475389;32;34674;-79
2023/08/06 06:35:23;;;;;;;0.20;0.20;;;;;;;19.51;73.32;98018.13;4467379;32;32337;-79
2023/08/06 06:37:51;;;;;;;0.50;0.50;;;;;;;20.01;70.50;98024.63;4490769;31;33837;-78
2023/08/06 06:40:19;;;;;;;1.00;0.40;;;;;;;20.55;68.07;98033.31;4475182;31;34678;-78
2023/08/06 06:42:46;;;;;;;0.20;0.20;;;;;;;20.43;69.04;98032.31;4483203;32;34140;-78
2023/08/06 06:45:14;;;;;;;0.57;0.37;;;;;;;19.99;69.39;98029.44;4485005;31;34543;-79
2023/08/06 06:47:42;;;;;;;0.52;0.43;;;;;;;19.66;71.05;98032.31;4484033;31;33158;-80
2023/08/06 06:50:10;;;;;;;0.25;0.25;;;;;;;19.39;72.38;98027.97;4493687;31;34661;-79
2023/08/06 06:52:37;;;;;;;0.32;0.30;;;;;;;19.84;70.48;98028.03;4483884;31;33782;-77
2023/08/06 06:55:05;;;;;;;0.20;0.20;;;;;;;19.83;71.02;98029.94;4485719;31;35386;-77
2023/08/06 06:57:33;;;;;;;0.40;0.30;;;;;;;19.78;70.52;98025.16;4487499;31;33337;-77
2023/08/06 07:00:00;;;;;;;1.17;0.52;;;;;;;20.20;68.77;98020.13;4487993;31;33713;-81
2023/08/06 07:02:32;;;;;;;0.70;0.20;;;;;;;19.98;69.46;98019.63;4485539;31;33561;-74
2023/08/06 07:04:59;;;;;;;0.10;0.10;;;;;;;20.27;69.05;98022.00;4489641;31;33858;-73
2023/08/06 07:07:27;;;;;;;0.35;0.20;;;;;;;20.74;67.06;98014.34;4491495;31;34285;-73
2023/08/06 07:09:55;;;;;;;0.10;0.10;;;;;;;20.77;67.16;98014.75;4475342;31;35991;-73
2023/08/06 07:12:23;;;;;;;0.52;0.10;;;;;;;20.88;66.62;98022.16;4481846;31;34039;-74
2023/08/06 07:14:51;;;;;;;0.52;0.37;;;;;;;20.31;67.73;98020.50;4483853;31;33644;-74
2023/08/06 07:17:19;;;;;;;0.28;0.10;;;;;;;20.35;67.42;98021.69;4483025;31;33213;-73
2023/08/06 07:19:46;;;;;;;0.10;0.10;;;;;;;20.48;67.52;98032.47;4487738;31;34757;-73
2023/08/06 07:22:14;;;;;;;0.10;0.10;;;;;;;20.62;66.88;98028.66;4485095;31;35293;-74
2023/08/06 07:24:41;;;;;;;0.08;0.08;;;;;;;20.87;65.89;98028.66;4486389;31;33624;-74
2023/08/06 07:27:09;;;;;;;0.70;0.20;;;;;;;20.84;66.63;98047.31;4494087;31;33255;-74
2023/08/06 07:29:37;;;;;;;0.52;0.30;;;;;;;20.65;66.99;98046.41;4487490;31;33508;-74
2023/08/06 07:32:06;;;;;;;0.95;0.25;;;;;;;19.95;69.66;98049.09;4486027;31;34684;-74
2023/08/06 07:34:34;;;;;;;0.10;0.10;;;;;;;20.38;67.48;98043.00;4485345;31;33832;-72
2023/08/06 07:37:01;;;;;;;1.35;0.10;;;;;;;20.83;65.71;98040.19;4477736;31;34955;-72
2023/08/06 07:39:29;;;;;;;0.10;0.10;;;;;;;20.91;65.06;98034.50;4496587;31;34036;-73
2023/08/06 07:41:57;;;;;;;0.20;0.20;;;;;;;20.77;66.33;98039.22;4484655;31;34883;-70
2023/08/06 07:44:24;;;;;;;0.30;0.30;;;;;;;20.46;67.33;98051.75;4482705;31;33611;-71
2023/08/06 07:46:52;;;;;;;0.20;0.20;;;;;;;20.69;65.94;98045.75;4479688;31;33271;-71
2023/08/06 07:49:21;;;;;;;0.20;0.20;;;;;;;20.46;67.33;98053.62;4477913;31;34477;-73
2023/08/06 07:51:48;;;;;;;0.50;0.30;;;;;;;20.01;68.42;98056.38;4481251;31;34188;-77
2023/08/06 07:54:16;;;;;;;2.10;0.25;;;;;;;20.05;68.73;98043.22;4482579;31;33937;-74
2023/08/06 07:56:44;;;;;;;0.30;0.30;;;;;;;20.11;68.65;98048.59;4481596;31;32851;-73
2023/08/06 07:59:11;;;;;;;0.10;0.10;;;;;;;20.80;66.47;98046.06;4481342;31;35284;-73
2023/08/06 08:01:39;;;;;;;0.70;0.40;;;;;;;21.12;65.31;98031.38;4481186;31;33750;-74
2023/08/06 08:04:07;;;;;;;0.50;0.32;;;;;;;21.20;64.63;98038.41;4488237;31;33511;-73
2023/08/06 08:06:34;;;;;;;0.28;0.28;;;;;;;21.25;65.68;98038.56;4477391;31;33424;-74
2023/08/06 08:09:02;;;;;;;0.20;0.20;;;;;;;20.41;66.87;98026.25;4490148;31;33660;-76
2023/08/06 08:11:30;;;;;;;4.15;0.25;;;;;;;20.29;67.32;98019.87;4495643;31;34278;-75
2023/08/06 08:13:58;;;;;;;0.62;0.20;;;;;;;20.21;68.42;98021.78;4479299;31;34513;-76
2023/08/06 08:16:25;;;;;;;0.30;0.28;;;;;;;20.38;67.21;98013.13;4477511;31;33253;-77
2023/08/06 08:18:53;;;;;;;0.30;0.30;;;;;;;20.12;68.65;98016.84;4476842;31;33030;-74
2023/08/06 08:21:21;;;;;;;0.20;0.20;;;;;;;20.06;67.59;98026.69;4478992;31;33819;-74
2023/08/06 08:23:48;;;;;;;0.30;0.28;;;;;;;20.52;66.67;98039.19;4475943;31;34891;-73
2023/08/06 08:26:16;;;;;;;0.20;0.20;;;;;;;20.04;67.76;98046.97;4484972;31;33192;-76
2023/08/06 08:28:44;;;;;;;0.30;0.30;;;;;;;20.31;67.43;98053.91;4478647;31;34738;-74
2023/08/06 08:31:11;;;;;;;1.77;0.43;;;;;;;20.60;66.64;98051.66;4482229;31;33863;-74
2023/08/06 08:33:39;;;;;;;0.47;0.30;;;;;;;20.60;66.50;98055.22;4480751;31;34273;-74
2023/08/06 08:36:09;;;;;;;0.20;0.20;;;;;;;20.10;68.19;98060.53;4475149;31;33380;-74
2023/08/06 08:38:37;;;;;;;0.35;0.35;;;;;;;19.76;69.12;98056.28;4484927;31;34682;-73
2023/08/06 08:41:05;;;;;;;0.25;0.22;;;;;;;20.31;67.55;98045.75;4479520;31;35141;-73
2023/08/06 08:43:33;;;;;;;0.20;0.20;;;;;;;20.22;68.23;98047.94;4473380;32;33525;-74
2023/08/06 08:46:02;;;;;;;0.45;0.43;;;;;;;20.46;66.96;98040.03;4481396;31;33000;-75
2023/08/06 08:48:30;;;;;;;4.07;0.60;;;;;;;20.52;67.18;98043.81;4479043;32;34069;-74
2023/08/06 08:50:58;;;;;;;0.40;0.40;;;;;;;20.27;67.37;98049.16;4487452;31;34245;-75
2023/08/06 08:53:26;;;;;;;0.43;0.35;;;;;;;19.99;68.63;98039.47;4482653;31;34660;-74
2023/08/06 08:55:55;;;;;;;0.35;0.35;;;;;;;19.68;68.15;98043.78;4467932;31;35014;-75
2023/08/06 08:58:22;;;;;;;0.40;0.40;;;;;;;19.74;68.51;98033.94;4485997;31;33601;-74
2023/08/06 09:00:50;;;;;;;0.62;0.60;;;;;;;20.06;67.35;98029.41;4486164;31;33851;-74
2023/08/06 09:03:18;;;;;;;0.68;0.68;;;;;;;19.58;68.86;98042.53;4487665;31;33549;-76
2023/08/06 09:05:50;;;;;;;0.95;0.77;;;;;;;20.04;66.66;98045.09;4482591;32;33129;-74
2023/08/06 09:08:19;;;;;;;4.00;1.37;;;;;;;19.82;67.46;98050.00;4487894;31;34711;-75
2023/08/06 09:10:49;;;;;;;1.17;0.73;;;;;;;19.91;67.34;98053.31;4481691;31;34759;-74
2023/08/06 09:13:17;;;;;;;1.37;0.90;;;;;;;19.58;68.76;98069.66;4482078;31;34322;-75
2023/08/06 09:15:46;;;;;;;1.33;0.88;;;;;;;19.84;67.50;98060.62;4480401;32;33978;-76
2023/08/06 09:18:13;;;;;;;1.12;0.77;;;;;;;20.07;66.75;98062.84;4485202;31;34691;-77
2023/08/06 09:20:41;;;;;;;0.88;0.62;;;;;;;19.93;67.02;98070.19;4483322;31;34837;-75
2023/08/06 09:23:10;;;;;;;0.90;0.77;;;;;;;19.58;68.38;98065.06;4498151;31;33847;-77
2023/08/06 09:25:40;;;;;;;0.40;0.40;;;;;;;19.70;68.10;98057.97;4479328;31;34388;-78
2023/08/06 09:28:08;;;;;;;1.05;0.73;;;;;;;19.64;68.01;98053.38;4486871;31;34709;-77
2023/08/06 09:30:37;;;;;;;1.27;0.62;;;;;;;19.60;68.06;98059.44;4482237;31;35019;-77
2023/08/06 09:33:11;;;;;;;1.10;0.73;;;;;;;19.42;68.91;98060.09;4486100;31;35129;-78
2023/08/06 09:35:39;;;;;;;1.00;0.53;;;;;;;19.40;69.13;98064.94;4456941;32;32948;-76
2023/08/06 09:38:11;;;;;;;1.23;0.60;;;;;;;19.91;67.49;98061.44;4449935;32;35120;-75
2023/08/06 09:40:40;;;;;;;0.43;0.43;;;;;;;19.69;67.97;98064.44;4431993;32;34650;-75
2023/08/06 09:43:08;;;;;;;2.12;0.73;;;;;;;19.97;66.74;98068.75;4456562;32;32344;-76
2023/08/06 09:45:37;;;;;;;1.05;0.75;;;;;;;19.80;67.71;98073.78;4456377;32;33346;-75
2023/08/06 09:48:06;;;;;;;0.80;0.32;;;;;;;19.71;67.75;98054.22;4449296;32;33801;-74
2023/08/06 09:50:36;;;;;;;0.93;0.68;;;;;;;19.71;66.59;98053.38;4450131;32;33857;-76
2023/08/06 09:53:06;;;;;;;0.52;0.30;;;;;;;19.73;67.18;98057.53;4450177;32;33628;-75
2023/08/06 09:55:33;;;;;;;0.50;0.50;;;;;;;19.90;66.29;98049.75;4449394;32;34216;-76
2023/08/06 09:58:01;;;;;;;0.50;0.35;;;;;;;20.15;66.73;98062.56;4439307;32;33591;-78
2023/08/06 10:00:30;;;;;;;0.85;0.55;;;;;;;20.20;65.35;98060.06;4442967;32;34109;-74
2023/08/06 10:03:02;;;;;;;0.30;0.22;;;;;;;20.19;65.77;98067.38;4446366;32;34910;-74
2023/08/06 10:05:31;;;;;;;0.85;0.60;;;;;;;19.82;66.88;98079.84;4448412;32;33745;-76
2023/08/06 10:07:59;;;;;;;0.30;0.30;;;;;;;20.24;65.20;98077.56;4462781;32;33590;-73
2023/08/06 10:10:27;;;;;;;0.43;0.43;;;;;;;20.15;64.65;98082.41;4463064;32;34115;-75
2023/08/06 10:12:56;;;;;;;0.80;0.50;;;;;;;20.23;65.31;98090.34;4448935;32;33508;-75
2023/08/06 10:15:26;;;;;;;0.45;0.40;;;;;;;20.51;64.10;98097.28;4453070;32;33181;-74
2023/08/06 10:17:56;;;;;;;0.55;0.50;;;;;;;20.07;64.58;98098.97;4463256;32;33735;-74
2023/08/06 10:20:24;;;;;;;0.90;0.32;;;;;;;20.60;63.09;98100.59;4451835;32;33955;-74
2023/08/06 10:23:00;;;;;;;0.98;0.60;;;;;;;20.63;62.67;98098.28;4444450;32;33965;-73
2023/08/06 10:25:32;;;;;;;0.65;0.47;;;;;;;20.87;63.04;98104.81;4463557;32;33375;-75
2023/08/06 10:28:00;;;;;;;0.52;0.37;;;;;;;20.67;62.97;98098.66;4459792;32;33512;-74
2023/08/06 10:30:32;;;;;;;0.43;0.32;;;;;;;20.88;61.75;98103.75;4460104;32;33554;-74
2023/08/06 10:33:01;;;;;;;0.47;0.30;;;;;;;20.66;62.22;98107.88;4461931;32;34461;-74
2023/08/06 10:35:38;;;;;;;0.75;0.60;;;;;;;20.02;63.75;98115.06;4461764;32;34340;-74
2023/08/06 10:38:14;;;;;;;0.32;0.32;;;;;;;20.41;63.42;98126.81;4465171;31;33513;-73
2023/08/06 10:41:01;;;;;;;0.93;0.65;;;;;;;19.98;63.82;98116.56;4493135;31;35433;-74
2023/08/06 10:43:32;;;;;;;0.57;0.47;;;;;;;20.19;63.92;98132.56;4491231;31;33472;-71
2023/08/06 10:46:01;;;;;;;1.33;0.70;;;;;;;20.25;63.04;98131.69;4493343;31;34096;-72
2023/08/06 10:48:37;;;;;;;0.70;0.50;;;;;;;20.18;64.79;98130.88;4488088;31;34929;-71
2023/08/06 10:51:08;;;;;;;1.15;0.85;;;;;;;20.43;64.48;98130.16;4479432;31;33876;-72
2023/08/06 10:53:37;;;;;;;1.17;0.70;;;;;;;20.72;64.28;98128.75;4481051;31;33517;-72
2023/08/06 10:56:25;;;;;;;0.62;0.55;;;;;;;20.98;62.48;98125.00;4481221;32;33227;-76
2023/08/06 10:58:56;;;;;;;0.40;0.40;;;;;;;20.55;61.82;98147.47;4479505;31;34516;-75
2023/08/06 11:01:24;;;;;;;0.57;0.50;;;;;;;20.44;62.98;98137.25;4492695;31;34940;-75
2023/08/06 11:03:53;;;;;;;1.30;0.75;;;;;;;20.74;63.46;98129.38;4483469;31;34801;-73
2023/08/06 11:06:22;;;;;;;1.67;0.70;;;;;;;20.98;61.69;98133.16;4492012;31;33339;-75
2023/08/06 11:08:54;;;;;;;1.60;0.70;;;;;;;20.92;61.60;98142.22;4484422;31;33433;-77
2023/08/06 11:11:23;;;;;;;1.70;0.80;;;;;;;20.96;62.43;98151.59;4478896;31;33793;-78
2023/08/06 11:13:51;;;;;;;0.60;0.60;;;;;;;21.06;63.28;98154.66;4481167;31;34801;-76
2023/08/06 11:16:21;;;;;;;1.55;0.93;;;;;;;20.51;63.63;98159.81;4476555;31;33207;-79
2023/08/06 11:18:49;;;;;;;1.58;0.85;;;;;;;20.21;63.66;98159.50;4478530;31;33835;-76
2023/08/06 11:21:20;;;;;;;0.40;0.40;;;;;;;19.84;65.81;98150.22;4476291;31;32662;-75
2023/08/06 11:23:48;;;;;;;1.17;0.62;;;;;;;19.88;65.28;98156.91;4477047;31;33401;-77
2023/08/06 11:26:20;;;;;;;0.60;0.40;;;;;;;20.27;64.14;98150.50;4476608;31;34004;-77
2023/08/06 11:28:47;;;;;;;2.85;0.52;;;;;;;20.01;64.24;98146.84;4480202;31;33881;-76
2023/08/06 11:31:20;;;;;;;0.98;0.70;;;;;;;20.23;63.69;98146.56;4494024;31;33511;-77
2023/08/06 11:33:50;;;;;;;0.75;0.57;;;;;;;19.90;66.24;98143.94;4480793;31;33460;-76
2023/08/06 11:36:28;;;;;;;0.70;0.40;;;;;;;20.14;64.03;98135.09;4479632;31;32949;-78
2023/08/06 11:38:57;;;;;;;2.90;0.77;;;;;;;19.60;66.05;98140.84;4489930;31;33885;-77
2023/08/06 11:41:25;;;;;;;3.00;0.77;;;;;;;19.82;65.67;98149.63;4479205;31;34014;-75